Time;durP1;ratioP1;P1;durP2;ratioP2;P2;SDS_P1;SDS_P2;PMS_P1;PMS_P2;Temp;Humidity;BMP_temperature;BMP_pressure;BME280_temperature;BME280_humidity;BME280_pressure;Samples;Min_cycle;Max_cycle;Signal;HPM_P1;HPM_P2
2023/08/10 00:00:17;;;;;;;3.28;2.47;;;13.40;99.90;;;;;;5013630;28;20030;-74
2023/08/10 00:02:44;;;;;;;3.47;2.25;;;13.40;99.90;;;;;;5014980;28;20404;-73
2023/08/10 00:05:10;;;;;;;3.35;2.25;;;13.50;99.90;;;;;;5015123;28;20468;-73
2023/08/10 00:07:36;;;;;;;3.78;2.47;;;13.50;99.90;;;;;;5014838;28;20030;-74
2023/08/10 00:10:04;;;;;;;4.10;2.72;;;13.50;99.90;;;;;;5014980;28;20045;-73
2023/08/10 00:12:30;;;;;;;4.85;2.85;;;13.50;99.90;;;;;;5014877;28;20022;-73
2023/08/10 00:14:56;;;;;;;3.95;2.38;;;13.50;99.90;;;;;;5014969;28;20030;-73
2023/08/10 00:17:22;;;;;;;3.45;2.08;;;13.50;99.90;;;;;;5014827;28;20029;-73
2023/08/10 00:19:47;;;;;;;3.55;2.13;;;13.50;99.90;;;;;;5014593;28;20030;-73
2023/08/10 00:22:14;;;;;;;3.33;1.85;;;13.40;99.90;;;;;;5014835;28;20026;-73
2023/08/10 00:24:39;;;;;;;4.45;2.35;;;13.50;99.90;;;;;;5014532;28;20033;-72
2023/08/10 00:27:06;;;;;;;4.28;2.33;;;13.50;99.90;;;;;;5012911;28;20416;-73
2023/08/10 00:29:32;;;;;;;4.03;2.20;;;13.50;99.90;;;;;;5014769;28;20026;-72
2023/08/10 00:31:58;;;;;;;3.38;2.15;;;13.50;99.90;;;;;;5014854;28;20026;-73
2023/08/10 00:34:24;;;;;;;3.22;2.20;;;13.50;99.90;;;;;;5015256;28;20072;-73
2023/08/10 00:36:50;;;;;;;3.83;2.42;;;13.50;99.90;;;;;;5014529;28;20432;-73
2023/08/10 00:39:17;;;;;;;4.70;3.28;;;13.50;99.90;;;;;;5014587;28;20022;-73
2023/08/10 00:41:45;;;;;;;4.03;2.33;;;13.50;99.90;;;;;;5014287;28;20029;-73
2023/08/10 00:44:11;;;;;;;4.18;2.42;;;13.40;99.90;;;;;;5014275;28;20101;-72
2023/08/10 00:46:37;;;;;;;3.70;2.42;;;13.40;99.90;;;;;;4997728;28;20109;-73
2023/08/10 00:49:04;;;;;;;4.32;2.72;;;13.40;99.90;;;;;;4994468;28;20026;-73
2023/08/10 00:51:30;;;;;;;4.57;2.70;;;13.40;99.90;;;;;;4993150;28;20370;-73
2023/08/10 00:53:56;;;;;;;3.50;2.30;;;13.40;99.90;;;;;;4994467;28;20038;-73
2023/08/10 00:56:21;;;;;;;7.25;3.58;;;13.40;99.90;;;;;;4994399;28;20041;-73
2023/08/10 00:58:48;;;;;;;5.97;3.30;;;13.40;99.90;;;;;;4994244;28;20034;-72
2023/08/10 01:01:14;;;;;;;6.63;3.25;;;13.40;99.90;;;;;;4994549;28;20031;-72
2023/08/10 01:03:40;;;;;;;5.25;2.90;;;13.40;99.90;;;;;;4994229;28;20037;-72
2023/08/10 01:06:20;;;;;;;3.95;2.20;;;13.40;99.90;;;;;;4994290;28;20034;-72
2023/08/10 01:09:09;;;;;;;3.50;2.23;;;13.40;99.90;;;;;;4994511;28;20026;-72
2023/08/10 01:11:56;;;;;;;2.90;2.00;;;13.40;99.90;;;;;;4994215;28;20015;-72
2023/08/10 01:14:51;;;;;;;3.28;1.73;;;13.40;99.90;;;;;;4994143;28;20485;-72
2023/08/10 01:17:27;;;;;;;2.45;1.52;;;13.40;99.90;;;;;;4994478;28;20088;-72
2023/08/10 01:19:54;;;;;;;3.17;2.00;;;13.40;99.90;;;;;;4992812;28;20050;-72
2023/08/10 01:22:21;;;;;;;2.50;1.73;;;13.40;99.90;;;;;;4992805;28;20057;-72
2023/08/10 01:25:03;;;;;;;4.00;2.13;;;13.40;99.90;;;;;;4994053;28;20389;-72
2023/08/10 01:27:29;;;;;;;2.63;1.52;;;13.40;99.90;;;;;;4995135;28;20385;-72
2023/08/10 01:29:56;;;;;;;2.63;1.90;;;13.40;99.90;;;;;;4994209;28;20469;-72
2023/08/10 01:32:22;;;;;;;2.83;1.83;;;13.40;99.90;;;;;;4993960;28;20023;-72
2023/08/10 01:34:50;;;;;;;3.35;2.00;;;13.40;99.90;;;;;;4993898;28;20046;-72
2023/08/10 01:37:16;;;;;;;2.55;1.80;;;13.40;99.90;;;;;;4993913;28;20030;-72
2023/08/10 01:39:42;;;;;;;3.40;2.20;;;13.30;99.90;;;;;;4996139;28;20109;-72
2023/08/10 01:42:07;;;;;;;2.97;2.05;;;13.30;99.90;;;;;;4998021;28;20030;-72
2023/08/10 01:44:33;;;;;;;2.78;2.03;;;13.30;99.90;;;;;;4997789;28;20035;-72
2023/08/10 01:47:03;;;;;;;4.28;2.33;;;13.20;99.90;;;;;;4997933;28;20058;-72
2023/08/10 01:49:33;;;;;;;4.32;2.72;;;13.20;99.90;;;;;;4998176;28;20014;-72
2023/08/10 01:52:01;;;;;;;4.63;2.58;;;13.20;99.90;;;;;;4998013;28;20503;-73
2023/08/10 01:54:28;;;;;;;4.78;3.17;;;13.20;99.90;;;;;;4998022;28;20026;-72
2023/08/10 01:56:54;;;;;;;6.70;4.15;;;13.20;99.90;;;;;;4997643;28;20057;-73
2023/08/10 01:59:19;;;;;;;6.80;3.90;;;13.20;99.90;;;;;;4996923;28;20050;-73
2023/08/10 02:01:45;;;;;;;6.03;3.80;;;13.20;99.90;;;;;;4997934;28;20105;-73
2023/08/10 02:04:11;;;;;;;3.63;2.63;;;13.30;99.90;;;;;;4997876;28;20543;-73
2023/08/10 02:06:40;;;;;;;3.38;2.22;;;13.30;99.90;;;;;;4997716;28;20457;-73
2023/08/10 02:09:06;;;;;;;2.63;1.73;;;13.30;99.90;;;;;;4997372;28;20439;-73
2023/08/10 02:11:32;;;;;;;3.00;2.10;;;13.30;99.90;;;;;;4996160;28;20035;-73
2023/08/10 02:13:59;;;;;;;3.58;1.85;;;13.40;99.90;;;;;;4997673;28;20033;-73
2023/08/10 02:16:25;;;;;;;3.35;1.98;;;13.50;99.90;;;;;;4997340;28;20477;-72
2023/08/10 02:18:50;;;;;;;2.70;1.70;;;13.40;99.90;;;;;;4995919;28;20057;-73
2023/08/10 02:21:16;;;;;;;2.65;1.50;;;13.40;99.90;;;;;;4997294;28;20084;-72
2023/08/10 02:23:41;;;;;;;3.78;1.60;;;13.40;99.90;;;;;;4997504;28;20026;-72
2023/08/10 02:26:07;;;;;;;2.20;1.40;;;13.40;99.90;;;;;;4997323;28;20057;-72
2023/08/10 02:28:33;;;;;;;2.67;1.60;;;13.40;99.90;;;;;;4997231;28;20369;-72
2023/08/10 02:30:59;;;;;;;2.22;1.48;;;13.40;99.90;;;;;;4997083;28;20030;-73
2023/08/10 02:33:25;;;;;;;3.88;1.27;;;13.40;99.90;;;;;;4995777;28;20022;-72
2023/08/10 02:35:51;;;;;;;2.95;1.65;;;13.40;99.90;;;;;;4997024;28;20037;-73
2023/08/10 02:38:17;;;;;;;3.65;1.58;;;13.40;99.90;;;;;;4997333;28;20057;-73
2023/08/10 02:40:43;;;;;;;2.20;1.42;;;13.40;99.90;;;;;;4979480;28;20046;-72
2023/08/10 02:43:08;;;;;;;5.32;1.95;;;13.40;99.90;;;;;;4997361;28;20045;-73
2023/08/10 02:45:34;;;;;;;2.72;1.83;;;13.40;99.90;;;;;;4996146;28;20027;-74
2023/08/10 02:48:00;;;;;;;3.83;1.80;;;13.40;99.90;;;;;;4996646;28;20033;-74
2023/08/10 02:50:25;;;;;;;3.30;1.95;;;13.40;99.90;;;;;;4996660;28;20097;-74
2023/08/10 02:52:51;;;;;;;3.53;1.90;;;13.40;99.90;;;;;;4995457;28;20030;-74
2023/08/10 02:55:17;;;;;;;3.15;1.40;;;13.30;99.90;;;;;;4996560;28;20034;-74
2023/08/10 02:57:43;;;;;;;2.60;1.60;;;13.30;99.90;;;;;;4996865;28;20061;-74
2023/08/10 03:00:12;;;;;;;3.05;2.22;;;13.30;99.90;;;;;;4995123;28;20037;-74
2023/08/10 03:02:38;;;;;;;3.25;2.30;;;13.30;99.90;;;;;;4996544;28;20026;-75
2023/08/10 03:05:05;;;;;;;2.90;2.05;;;13.30;99.90;;;;;;4996463;28;20053;-75
2023/08/10 03:07:31;;;;;;;4.38;2.78;;;13.30;99.90;;;;;;4996659;28;20023;-75
2023/08/10 03:09:57;;;;;;;3.38;2.35;;;13.30;99.90;;;;;;4996581;28;20443;-74
2023/08/10 03:12:24;;;;;;;3.55;2.25;;;13.30;99.90;;;;;;4996312;28;20041;-75
2023/08/10 03:14:49;;;;;;;2.53;1.80;;;13.30;99.90;;;;;;4994971;28;20034;-74
2023/08/10 03:17:15;;;;;;;3.03;1.95;;;13.20;99.90;;;;;;4996292;28;20077;-75
2023/08/10 03:19:41;;;;;;;2.80;2.00;;;13.20;99.90;;;;;;4996068;28;20038;-75
2023/08/10 03:22:07;;;;;;;2.92;1.67;;;13.20;99.90;;;;;;4996144;28;20037;-75
2023/08/10 03:24:36;;;;;;;2.55;1.70;;;13.20;99.90;;;;;;4994790;28;20034;-75
2023/08/10 03:27:01;;;;;;;2.50;1.60;;;13.20;99.90;;;;;;4996176;28;20101;-75
2023/08/10 03:29:27;;;;;;;3.90;2.08;;;13.30;99.90;;;;;;4996148;28;20102;-74
2023/08/10 03:31:53;;;;;;;2.70;1.80;;;13.30;99.90;;;;;;4995903;28;20118;-75
2023/08/10 03:34:18;;;;;;;2.88;1.90;;;13.30;99.90;;;;;;4996225;28;20026;-75
2023/08/10 03:36:44;;;;;;;3.47;1.98;;;13.30;99.90;;;;;;4996131;28;20089;-75
2023/08/10 03:39:10;;;;;;;5.25;2.88;;;13.30;99.90;;;;;;4994740;28;20077;-74
2023/08/10 03:41:36;;;;;;;5.75;4.78;;;13.30;99.90;;;;;;4994671;28;20030;-75
2023/08/10 03:44:01;;;;;;;7.07;4.88;;;13.30;99.90;;;;;;4995801;28;20101;-75
2023/08/10 03:46:27;;;;;;;5.43;4.25;;;13.30;99.90;;;;;;4995832;28;20113;-74
2023/08/10 03:48:53;;;;;;;4.95;3.65;;;13.30;99.90;;;;;;4995596;28;20034;-74
2023/08/10 03:51:18;;;;;;;3.95;2.65;;;13.30;99.90;;;;;;4995665;28;20022;-75
2023/08/10 03:53:44;;;;;;;3.63;2.70;;;13.30;99.90;;;;;;4995552;28;20101;-74
2023/08/10 03:56:10;;;;;;;2.65;1.70;;;13.30;99.90;;;;;;4994265;28;20030;-74
2023/08/10 03:58:35;;;;;;;2.78;1.90;;;13.30;99.90;;;;;;4995287;28;20447;-73
2023/08/10 04:01:02;;;;;;;2.80;1.95;;;13.40;99.90;;;;;;4993880;28;20567;-73
2023/08/10 04:03:28;;;;;;;2.92;1.90;;;13.40;99.90;;;;;;4994876;28;20027;-73
2023/08/10 04:05:55;;;;;;;4.03;2.20;;;13.40;99.90;;;;;;4994253;28;20027;-74
2023/08/10 04:08:20;;;;;;;9.65;5.55;;;13.40;99.90;;;;;;4993911;28;20105;-73
2023/08/10 04:10:46;;;;;;;5.20;3.97;;;13.40;99.90;;;;;;4995096;28;20046;-74
2023/08/10 04:13:12;;;;;;;5.63;3.53;;;13.40;99.90;;;;;;4995426;28;20026;-74
2023/08/10 04:15:37;;;;;;;3.30;2.20;;;13.30;99.90;;;;;;4995890;28;20354;-73
2023/08/10 04:18:03;;;;;;;2.70;2.03;;;13.30;99.90;;;;;;4995148;28;20488;-73
2023/08/10 04:20:30;;;;;;;2.85;1.92;;;13.30;99.90;;;;;;4993766;28;20038;-73
2023/08/10 04:22:57;;;;;;;2.80;1.40;;;13.20;99.90;;;;;;4992855;28;20037;-73
2023/08/10 04:25:23;;;;;;;2.80;1.60;;;13.20;99.90;;;;;;4992821;28;20555;-73
2023/08/10 04:27:48;;;;;;;3.17;1.80;;;13.20;99.90;;;;;;4993144;28;20058;-74
2023/08/10 04:30:14;;;;;;;2.85;1.50;;;13.20;99.90;;;;;;4993127;28;20026;-74
2023/08/10 04:32:40;;;;;;;1.90;1.33;;;13.20;99.90;;;;;;5015945;28;20025;-74
2023/08/10 04:35:06;;;;;;;2.78;1.73;;;13.20;99.90;;;;;;5031069;28;20029;-74
2023/08/10 04:37:32;;;;;;;2.65;1.80;;;13.20;99.90;;;;;;5015598;28;20038;-74
2023/08/10 04:39:57;;;;;;;2.83;1.60;;;13.20;99.90;;;;;;5014273;28;20113;-74
2023/08/10 04:42:23;;;;;;;2.20;1.40;;;13.20;99.90;;;;;;5014351;28;20072;-73
2023/08/10 04:44:49;;;;;;;2.35;1.60;;;13.20;99.90;;;;;;5016740;28;20480;-74
2023/08/10 04:47:15;;;;;;;2.85;1.58;;;13.20;99.90;;;;;;5014005;28;20404;-74
2023/08/10 04:49:40;;;;;;;3.00;2.03;;;13.30;99.90;;;;;;5013821;28;20028;-74
2023/08/10 04:52:07;;;;;;;3.40;2.17;;;13.30;99.90;;;;;;5013930;28;20026;-74
2023/08/10 04:54:32;;;;;;;3.05;2.30;;;13.30;99.90;;;;;;5014893;28;20029;-74
2023/08/10 04:56:58;;;;;;;3.10;2.47;;;13.30;99.90;;;;;;5013882;28;20026;-74
2023/08/10 04:59:24;;;;;;;3.45;2.58;;;13.30;99.90;;;;;;5014345;28;20535;-74
2023/08/10 05:01:49;;;;;;;3.90;2.67;;;13.30;99.90;;;;;;5013686;28;20105;-74
2023/08/10 05:04:15;;;;;;;3.25;2.17;;;13.30;99.90;;;;;;5013762;28;20022;-74
2023/08/10 05:06:41;;;;;;;3.30;2.17;;;13.30;99.90;;;;;;5013668;28;20461;-74
2023/08/10 05:09:07;;;;;;;3.20;1.75;;;13.30;99.90;;;;;;5017043;28;20109;-73
2023/08/10 05:11:33;;;;;;;2.75;1.95;;;13.30;99.90;;;;;;5013703;28;20112;-74
2023/08/10 05:13:59;;;;;;;2.45;1.77;;;13.30;99.90;;;;;;5006976;28;20036;-74
2023/08/10 05:16:24;;;;;;;2.80;2.00;;;13.30;99.90;;;;;;5014969;28;20364;-74
2023/08/10 05:18:50;;;;;;;3.03;1.67;;;13.30;99.90;;;;;;5013694;28;20041;-74
2023/08/10 05:21:17;;;;;;;2.40;1.58;;;13.40;99.90;;;;;;5013431;28;20030;-74
2023/08/10 05:23:43;;;;;;;2.38;1.60;;;13.40;99.90;;;;;;5013509;28;20404;-73
2023/08/10 05:26:10;;;;;;;2.88;1.60;;;13.40;99.90;;;;;;5013358;28;20037;-73
2023/08/10 05:28:36;;;;;;;2.55;1.77;;;13.40;99.90;;;;;;5012324;28;20018;-74
2023/08/10 05:31:01;;;;;;;5.88;3.08;;;13.40;99.90;;;;;;5013441;28;20471;-74
2023/08/10 05:33:27;;;;;;;4.82;2.83;;;13.50;99.90;;;;;;5011024;28;20026;-74
2023/08/10 05:35:53;;;;;;;3.95;2.45;;;13.50;99.90;;;;;;5013365;28;20117;-74
2023/08/10 05:38:18;;;;;;;3.20;2.30;;;13.50;99.90;;;;;;5011486;28;20499;-75
2023/08/10 05:40:44;;;;;;;3.55;2.45;;;13.50;99.90;;;;;;5011810;28;20081;-75
2023/08/10 05:43:10;;;;;;;3.65;2.45;;;13.50;99.90;;;;;;4979721;28;20076;-75
2023/08/10 05:45:36;;;;;;;3.85;2.63;;;13.60;99.90;;;;;;4994540;28;20030;-75
2023/08/10 05:48:09;;;;;;;4.05;2.15;;;13.60;99.90;;;;;;5010728;28;20097;-75
2023/08/10 05:50:35;;;;;;;3.08;2.03;;;13.60;99.90;;;;;;5012047;28;20037;-75
2023/08/10 05:53:01;;;;;;;2.88;1.88;;;13.60;99.90;;;;;;5010724;28;20026;-75
2023/08/10 05:55:26;;;;;;;2.90;1.80;;;13.70;99.90;;;;;;5011710;28;20052;-75
2023/08/10 05:57:52;;;;;;;2.55;1.95;;;13.70;99.90;;;;;;5012132;28;20030;-75
2023/08/10 06:00:18;;;;;;;2.83;1.83;;;13.80;99.90;;;;;;5013327;28;20033;-76
2023/08/10 06:02:45;;;;;;;2.25;1.50;;;13.90;99.90;;;;;;5013359;28;20034;-76
2023/08/10 06:05:12;;;;;;;2.53;1.70;;;13.90;99.90;;;;;;5012107;28;20057;-76
2023/08/10 06:07:38;;;;;;;2.40;1.48;;;14.00;99.90;;;;;;5013289;28;20026;-76
2023/08/10 06:10:05;;;;;;;2.65;1.70;;;14.00;99.90;;;;;;5011846;28;20022;-75
2023/08/10 06:12:31;;;;;;;2.55;1.77;;;14.10;99.90;;;;;;5012120;28;20026;-76
2023/08/10 06:14:58;;;;;;;2.45;1.70;;;14.10;99.90;;;;;;5012354;28;20026;-76
2023/08/10 06:17:23;;;;;;;3.63;2.13;;;14.10;99.90;;;;;;5011772;28;20041;-75
2023/08/10 06:19:53;;;;;;;3.35;1.95;;;14.10;99.90;;;;;;5013280;28;20034;-75
2023/08/10 06:22:20;;;;;;;3.53;2.03;;;14.10;99.90;;;;;;5013949;28;20037;-76
2023/08/10 06:24:46;;;;;;;3.03;1.85;;;14.10;99.90;;;;;;5013614;28;20041;-75
2023/08/10 06:27:12;;;;;;;4.20;2.47;;;14.10;99.90;;;;;;5016802;28;20014;-76
2023/08/10 06:29:37;;;;;;;3.33;2.10;;;14.10;99.90;;;;;;5017419;28;20022;-76
2023/08/10 06:32:06;;;;;;;2.97;2.20;;;14.10;99.90;;;;;;5017199;28;20026;-76
2023/08/10 06:34:32;;;;;;;3.55;1.98;;;14.20;99.90;;;;;;5016890;28;20096;-76
2023/08/10 06:36:59;;;;;;;3.13;2.10;;;14.20;99.90;;;;;;5016626;28;20485;-76
2023/08/10 06:39:27;;;;;;;3.55;2.22;;;14.30;99.90;;;;;;5016729;28;20100;-76
2023/08/10 06:41:53;;;;;;;4.45;2.25;;;14.50;99.90;;;;;;5016757;28;20030;-76
2023/08/10 06:44:20;;;;;;;3.53;2.33;;;14.60;99.90;;;;;;5016480;28;20029;-75
2023/08/10 06:46:45;;;;;;;3.53;2.05;;;14.60;99.90;;;;;;5015278;28;20026;-76
2023/08/10 06:49:11;;;;;;;2.78;1.98;;;14.70;99.90;;;;;;5016318;28;20106;-76
2023/08/10 06:51:37;;;;;;;3.60;2.08;;;14.70;99.90;;;;;;5016346;28;20018;-76
2023/08/10 06:54:03;;;;;;;3.65;2.40;;;14.70;99.90;;;;;;4998843;28;20033;-76
2023/08/10 06:56:29;;;;;;;3.35;2.13;;;14.80;99.90;;;;;;5015131;28;20030;-76
2023/08/10 06:58:55;;;;;;;3.63;2.58;;;14.90;99.90;;;;;;5016399;28;20049;-76
2023/08/10 07:01:22;;;;;;;3.85;2.50;;;14.90;99.90;;;;;;5016211;28;20192;-76
2023/08/10 07:03:47;;;;;;;3.72;2.33;;;15.00;99.90;;;;;;5014988;28;20026;-76
2023/08/10 07:06:13;;;;;;;3.70;2.38;;;15.10;99.90;;;;;;5016085;28;20427;-76
2023/08/10 07:08:39;;;;;;;3.95;1.90;;;15.10;99.90;;;;;;5014833;28;20049;-76
2023/08/10 07:11:05;;;;;;;2.17;1.50;;;15.10;99.90;;;;;;5014811;28;20029;-76
2023/08/10 07:13:31;;;;;;;4.43;1.85;;;15.20;99.90;;;;;;5016090;28;20553;-76
2023/08/10 07:15:57;;;;;;;2.63;1.60;;;15.30;99.90;;;;;;5016166;28;20109;-76
2023/08/10 07:18:23;;;;;;;2.90;1.40;;;15.30;99.90;;;;;;5015797;28;20121;-76
2023/08/10 07:20:49;;;;;;;1.70;1.20;;;15.40;99.90;;;;;;5017704;28;20101;-74
2023/08/10 07:23:17;;;;;;;1.85;1.20;;;15.60;99.90;;;;;;5015751;28;20040;-75
2023/08/10 07:25:45;;;;;;;2.85;1.67;;;15.70;99.90;;;;;;5015698;28;20033;-75
2023/08/10 07:28:11;;;;;;;2.13;1.30;;;15.70;99.90;;;;;;5015960;28;20030;-75
2023/08/10 07:30:37;;;;;;;1.88;1.55;;;15.70;99.90;;;;;;5015581;28;20028;-75
2023/08/10 07:33:03;;;;;;;3.92;1.67;;;15.80;99.90;;;;;;5015832;28;20404;-75
2023/08/10 07:35:29;;;;;;;2.83;1.80;;;15.90;99.90;;;;;;5014295;28;20037;-74
2023/08/10 07:37:55;;;;;;;3.22;1.77;;;16.00;99.90;;;;;;5015756;28;20030;-75
2023/08/10 07:40:20;;;;;;;2.53;1.88;;;16.00;99.90;;;;;;5015432;28;20033;-75
2023/08/10 07:42:46;;;;;;;2.72;1.65;;;16.00;99.90;;;;;;5014186;28;20392;-74
2023/08/10 07:45:12;;;;;;;2.95;1.80;;;16.10;99.90;;;;;;5015263;28;20030;-75
2023/08/10 07:47:38;;;;;;;2.65;1.40;;;16.10;99.90;;;;;;5015552;28;20072;-75
2023/08/10 07:50:05;;;;;;;3.58;1.85;;;16.20;99.90;;;;;;5015244;28;20431;-75
2023/08/10 07:52:31;;;;;;;2.47;1.80;;;16.40;99.90;;;;;;5015484;28;20042;-75
2023/08/10 07:54:57;;;;;;;2.85;1.80;;;16.60;99.90;;;;;;5015271;28;20057;-75
2023/08/10 07:57:22;;;;;;;2.78;1.45;;;16.70;99.90;;;;;;5015089;28;20029;-75
2023/08/10 07:59:48;;;;;;;2.80;1.90;;;16.90;99.90;;;;;;5013820;28;20033;-75
2023/08/10 08:02:14;;;;;;;2.67;1.90;;;16.90;99.90;;;;;;5015004;28;20022;-75
2023/08/10 08:04:39;;;;;;;2.72;1.40;;;16.80;99.90;;;;;;4997481;28;20511;-75
2023/08/10 08:07:05;;;;;;;2.67;1.55;;;16.80;99.90;;;;;;5014933;28;20026;-75
2023/08/10 08:09:31;;;;;;;3.60;2.00;;;16.80;99.90;;;;;;5013633;28;20053;-75
2023/08/10 08:11:56;;;;;;;2.90;1.52;;;17.00;99.90;;;;;;5013729;28;20030;-75
2023/08/10 08:14:22;;;;;;;3.42;2.20;;;17.10;99.90;;;;;;5014771;28;20022;-75
2023/08/10 08:16:48;;;;;;;3.03;1.30;;;17.10;99.90;;;;;;5013621;28;20053;-75
2023/08/10 08:19:14;;;;;;;3.67;1.58;;;17.10;99.90;;;;;;5015237;28;20500;-75
2023/08/10 08:21:39;;;;;;;2.65;1.33;;;17.10;99.90;;;;;;5013540;28;20510;-75
2023/08/10 08:24:05;;;;;;;3.13;2.22;;;17.30;99.90;;;;;;5014645;28;20105;-75
2023/08/10 08:26:32;;;;;;;2.60;1.50;;;17.30;99.90;;;;;;5014800;28;20022;-75
2023/08/10 08:28:58;;;;;;;2.38;1.63;;;17.30;99.90;;;;;;5014703;28;20025;-75
2023/08/10 08:31:25;;;;;;;2.63;1.30;;;17.40;99.90;;;;;;5014578;28;20076;-75
2023/08/10 08:33:51;;;;;;;2.65;1.48;;;17.40;99.90;;;;;;5013412;28;20022;-75
2023/08/10 08:36:18;;;;;;;2.00;1.40;;;17.40;99.90;;;;;;5013526;28;20105;-75
2023/08/10 08:38:44;;;;;;;1.98;1.30;;;17.40;99.90;;;;;;5014438;28;20026;-75
2023/08/10 08:41:11;;;;;;;2.60;1.45;;;17.50;99.90;;;;;;5014430;28;20029;-76
2023/08/10 08:43:37;;;;;;;2.40;1.38;;;17.50;99.90;;;;;;5014768;28;20037;-75
2023/08/10 08:46:05;;;;;;;2.30;1.38;;;17.50;99.90;;;;;;5015347;28;20068;-75
2023/08/10 08:48:31;;;;;;;1.83;1.25;;;17.60;99.90;;;;;;5013642;28;20029;-75
2023/08/10 08:50:57;;;;;;;2.10;1.30;;;17.70;99.90;;;;;;5013590;28;20030;-75
2023/08/10 08:53:24;;;;;;;1.95;1.23;;;17.90;99.90;;;;;;5015899;28;20029;-76
2023/08/10 08:55:50;;;;;;;1.98;1.13;;;18.00;99.90;;;;;;5014455;28;20068;-75
2023/08/10 08:58:17;;;;;;;2.38;1.10;;;18.10;99.90;;;;;;5013998;28;20049;-76
2023/08/10 09:00:54;;;;;;;2.03;1.10;;;18.20;99.90;;;;;;5012931;28;20073;-76
2023/08/10 09:03:24;;;;;;;1.90;1.10;;;18.20;99.90;;;;;;5014052;28;20081;-76
2023/08/10 09:05:50;;;;;;;2.22;1.17;;;18.30;99.90;;;;;;5012748;28;20120;-76
2023/08/10 09:08:19;;;;;;;2.10;1.30;;;18.30;99.90;;;;;;5013878;28;20480;-76
2023/08/10 09:10:46;;;;;;;2.28;1.23;;;18.40;99.90;;;;;;5012702;28;20021;-76
2023/08/10 09:13:17;;;;;;;3.63;1.40;;;18.40;99.90;;;;;;5012696;28;20045;-76
2023/08/10 09:15:43;;;;;;;2.17;1.17;;;18.40;99.90;;;;;;5012786;28;20026;-76
2023/08/10 09:18:09;;;;;;;2.67;1.30;;;18.40;99.90;;;;;;5012497;28;20076;-76
2023/08/10 09:20:34;;;;;;;3.40;1.40;;;18.30;99.90;;;;;;5013853;28;20062;-76
2023/08/10 09:23:01;;;;;;;1.98;1.33;;;18.30;99.90;;;;;;4996334;28;20037;-76
2023/08/10 09:25:35;;;;;;;4.10;1.70;;;18.20;99.90;;;;;;5012573;28;20548;-76
2023/08/10 09:28:00;;;;;;;2.70;1.50;;;18.20;99.90;;;;;;5013943;28;20029;-75
2023/08/10 09:30:26;;;;;;;2.58;1.42;;;18.40;99.90;;;;;;4996051;28;20491;-76
2023/08/10 09:32:52;;;;;;;3.30;1.20;;;18.50;99.90;;;;;;5013621;28;20075;-77
2023/08/10 09:35:19;;;;;;;5.78;1.42;;;18.60;99.90;;;;;;5013751;28;20029;-77
2023/08/10 09:37:48;;;;;;;3.65;1.45;;;18.70;99.90;;;;;;5012387;28;20400;-77
2023/08/10 09:40:17;;;;;;;2.42;1.42;;;18.80;99.90;;;;;;5012603;28;20128;-77
2023/08/10 09:42:43;;;;;;;4.47;1.38;;;19.00;99.90;;;;;;5014009;28;20381;-76
2023/08/10 09:45:13;;;;;;;3.38;1.65;;;19.00;99.90;;;;;;5013980;28;20037;-77
2023/08/10 09:47:41;;;;;;;2.67;1.35;;;19.10;99.90;;;;;;5013805;28;20485;-77
2023/08/10 09:50:15;;;;;;;3.45;1.60;;;19.10;99.90;;;;;;5013674;28;20034;-77
2023/08/10 09:52:43;;;;;;;2.78;1.30;;;19.00;99.90;;;;;;5013947;28;20396;-77
2023/08/10 09:55:10;;;;;;;2.53;1.40;;;19.00;99.90;;;;;;5013917;28;20034;-77
2023/08/10 09:57:40;;;;;;;2.17;1.42;;;19.00;99.90;;;;;;4996766;28;20026;-77
2023/08/10 10:00:14;;;;;;;2.47;1.65;;;19.00;99.90;;;;;;5015237;28;20034;-77
2023/08/10 10:02:40;;;;;;;2.50;1.50;;;19.00;99.90;;;;;;5017294;28;20037;-77
2023/08/10 10:05:07;;;;;;;3.55;1.60;;;19.00;99.90;;;;;;5017996;28;20025;-77
2023/08/10 10:07:33;;;;;;;2.90;1.70;;;19.10;99.90;;;;;;5016900;28;20076;-77
2023/08/10 10:09:59;;;;;;;2.78;1.48;;;19.20;99.90;;;;;;5016980;28;20030;-77
2023/08/10 10:12:25;;;;;;;2.85;1.55;;;19.30;99.90;;;;;;5018346;28;20022;-77
2023/08/10 10:14:52;;;;;;;3.25;1.50;;;19.30;99.90;;;;;;5018050;28;20026;-76
2023/08/10 10:17:19;;;;;;;2.25;1.42;;;19.20;99.90;;;;;;5016135;28;20032;-77
2023/08/10 10:19:48;;;;;;;2.67;1.50;;;19.20;99.90;;;;;;5017136;28;20032;-77
2023/08/10 10:22:16;;;;;;;2.42;1.38;;;19.20;99.90;;;;;;5016951;28;20392;-77
2023/08/10 10:24:42;;;;;;;2.40;1.50;;;19.10;99.90;;;;;;5016933;28;20018;-77
2023/08/10 10:27:12;;;;;;;1.95;1.25;;;19.10;99.90;;;;;;5017080;28;20082;-77
2023/08/10 10:29:49;;;;;;;2.50;1.58;;;19.10;99.90;;;;;;5016831;28;20033;-77
2023/08/10 10:32:15;;;;;;;2.17;1.42;;;19.20;99.90;;;;;;5017112;28;20026;-77
2023/08/10 10:34:41;;;;;;;8.38;1.65;;;19.30;99.90;;;;;;5015823;28;20041;-77
2023/08/10 10:37:18;;;;;;;3.55;1.70;;;19.50;99.90;;;;;;5015743;28;20034;-77
2023/08/10 10:39:47;;;;;;;2.40;1.30;;;19.60;99.90;;;;;;5017246;28;20029;-77
2023/08/10 10:42:16;;;;;;;2.85;1.75;;;19.80;99.90;;;;;;5017521;28;20497;-77
2023/08/10 10:45:03;;;;;;;2.95;1.70;;;19.90;99.90;;;;;;5017002;28;20022;-77
2023/08/10 10:47:40;;;;;;;3.40;2.08;;;19.90;99.90;;;;;;5015464;28;20061;-77
2023/08/10 10:50:20;;;;;;;2.55;1.60;;;19.90;99.90;;;;;;5015350;28;20026;-77
2023/08/10 10:53:15;;;;;;;2.30;1.58;;;20.00;99.90;;;;;;5016659;28;20037;-77
2023/08/10 10:55:45;;;;;;;2.47;1.63;;;20.20;99.90;;;;;;5015502;28;20357;-77
2023/08/10 10:58:12;;;;;;;2.93;1.90;;;20.30;99.90;;;;;;5016589;28;20487;-77
2023/08/10 11:00:39;;;;;;;2.70;1.90;;;20.30;99.90;;;;;;5016474;28;20053;-77
2023/08/10 11:03:06;;;;;;;3.13;1.55;;;20.20;99.90;;;;;;5016549;28;20380;-76
2023/08/10 11:05:33;;;;;;;3.08;1.60;;;20.10;99.90;;;;;;5014824;28;20030;-76
2023/08/10 11:08:03;;;;;;;3.88;2.00;;;20.10;99.90;;;;;;5016047;28;20024;-76
2023/08/10 11:10:31;;;;;;;2.70;1.60;;;20.30;99.90;;;;;;5015789;28;20057;-76
2023/08/10 11:12:57;;;;;;;2.60;1.60;;;20.30;99.90;;;;;;5016300;28;20022;-76
2023/08/10 11:15:23;;;;;;;2.58;1.63;;;20.30;99.90;;;;;;5016083;28;20121;-76
2023/08/10 11:17:53;;;;;;;4.15;1.75;;;20.30;99.90;;;;;;5015230;28;20038;-77
2023/08/10 11:20:20;;;;;;;2.92;1.80;;;20.40;99.90;;;;;;5015371;28;20080;-76
2023/08/10 11:22:50;;;;;;;3.45;1.80;;;20.60;99.90;;;;;;5016456;28;20049;-76
2023/08/10 11:25:19;;;;;;;2.67;1.60;;;20.80;99.90;;;;;;5016027;28;20365;-76
2023/08/10 11:27:47;;;;;;;2.67;1.80;;;20.90;99.90;;;;;;5015917;28;20534;-76
2023/08/10 11:30:16;;;;;;;2.53;1.58;;;20.90;99.90;;;;;;5014715;28;20393;-76
2023/08/10 11:32:47;;;;;;;2.72;1.65;;;21.10;99.90;;;;;;5016014;28;20040;-76
2023/08/10 11:35:16;;;;;;;;;;;21.20;99.90;;;;;;5015021;28;20121;-76
2023/08/10 11:37:42;;;;;;;2.17;1.50;;;21.30;99.90;;;;;;5015648;28;19905;-76
2023/08/10 11:40:16;;;;;;;4.43;1.50;;;21.50;99.90;;;;;;5014442;28;20503;-76
2023/08/10 11:42:52;;;;;;;3.05;1.65;;;21.60;99.90;;;;;;5015642;28;20026;-76
2023/08/10 11:45:20;;;;;;;3.08;1.65;;;21.60;99.90;;;;;;5015449;28;20022;-76
2023/08/10 11:47:57;;;;;;;2.92;1.65;;;21.50;99.20;;;;;;5015406;28;20026;-76
2023/08/10 11:50:25;;;;;;;2.85;1.77;;;21.40;99.90;;;;;;5015447;28;20053;-76
2023/08/10 11:52:55;;;;;;;2.95;1.73;;;21.50;99.90;;;;;;5015341;28;20026;-76
2023/08/10 11:55:21;;;;;;;3.30;1.80;;;21.60;99.90;;;;;;5015408;28;20503;-76
2023/08/10 11:57:49;;;;;;;3.65;1.88;;;21.60;99.80;;;;;;5015264;28;20034;-76
2023/08/10 12:00:21;;;;;;;2.25;1.63;;;21.70;99.90;;;;;;5015082;28;20030;-76
2023/08/10 12:03:11;;;;;;;2.65;1.52;;;21.80;99.90;;;;;;5015106;28;20104;-76
2023/08/10 12:05:37;;;;;;;2.72;1.92;;;21.90;99.90;;;;;;5013787;28;20033;-76
2023/08/10 12:08:08;;;;;;;3.13;1.88;;;21.90;99.90;;;;;;5015222;28;20543;-76
2023/08/10 12:10:41;;;;;;;3.70;1.65;;;21.90;99.00;;;;;;5014984;28;20026;-76
2023/08/10 12:13:10;;;;;;;4.00;1.80;;;22.00;99.00;;;;;;5014865;28;20029;-76
2023/08/10 12:15:37;;;;;;;3.72;1.80;;;22.10;99.20;;;;;;5013596;28;20543;-76
2023/08/10 12:18:04;;;;;;;5.22;1.63;;;22.30;99.00;;;;;;5014817;28;20060;-76
2023/08/10 12:20:30;;;;;;;3.92;1.83;;;22.50;99.70;;;;;;5014866;28;20029;-76
2023/08/10 12:22:56;;;;;;;4.20;2.00;;;22.60;99.30;;;;;;5014075;28;20084;-76
2023/08/10 12:25:22;;;;;;;3.50;1.73;;;22.70;97.70;;;;;;5014683;28;20038;-76
2023/08/10 12:27:48;;;;;;;3.15;2.00;;;22.90;98.00;;;;;;5014792;28;20120;-76
2023/08/10 12:30:14;;;;;;;3.38;1.75;;;23.00;97.10;;;;;;5014649;28;20065;-76
2023/08/10 12:32:40;;;;;;;3.00;1.67;;;23.00;97.70;;;;;;5013508;28;20443;-76
2023/08/10 12:35:06;;;;;;;3.88;1.90;;;23.00;98.00;;;;;;5014585;28;20025;-76
2023/08/10 12:37:31;;;;;;;4.45;1.90;;;23.00;98.00;;;;;;5013284;28;20400;-76
2023/08/10 12:39:57;;;;;;;3.15;1.77;;;22.90;97.60;;;;;;5014582;28;20388;-76
2023/08/10 12:42:24;;;;;;;5.68;2.00;;;23.00;97.80;;;;;;5014612;28;20040;-76
2023/08/10 12:44:51;;;;;;;3.88;2.00;;;23.10;97.50;;;;;;5013333;28;20484;-76
2023/08/10 12:47:17;;;;;;;2.75;1.85;;;23.20;97.70;;;;;;5014502;28;20391;-75